Time;durP1;ratioP1;P1;durP2;ratioP2;P2;SDS_P1;SDS_P2;PMS_P1;PMS_P2;Temp;Humidity;BMP_temperature;BMP_pressure;BME280_temperature;BME280_humidity;BME280_pressure;Samples;Min_cycle;Max_cycle;Signal;HPM_P1;HPM_P2
2022/12/05 00:02:13;;;;;;;;;;;;;;;0.29;77.27;102047.41;5046956;28;19909;-70
2022/12/05 00:04:39;;;;;;;;;;;;;;;0.29;77.14;102034.66;5046971;28;19909;-69
2022/12/05 00:07:04;;;;;;;;;;;;;;;0.27;77.15;102033.66;5045446;28;19909;-70
2022/12/05 00:09:29;;;;;;;;;;;;;;;0.26;77.30;102031.91;5062023;28;19971;-69
2022/12/05 00:11:54;;;;;;;;;;;;;;;0.23;77.24;102033.47;5062132;28;19920;-70
2022/12/05 00:14:20;;;;;;;;;;;;;;;0.23;77.13;102030.94;5045388;28;19909;-70
2022/12/05 00:16:45;;;;;;;;;;;;;;;0.18;77.25;102029.75;5046834;28;20011;-69
2022/12/05 00:19:12;;;;;;;;;;;;;;;0.18;77.22;102034.88;5046013;28;19935;-69
2022/12/05 00:21:37;;;;;;;;;;;;;;;0.17;77.09;102033.13;5046277;28;19917;-70
2022/12/05 00:24:04;;;;;;;;;;;;;;;0.17;77.24;102045.88;5046449;28;19913;-70
2022/12/05 00:26:30;;;;;;;;;;;;;;;0.15;77.18;102039.78;5046234;28;19950;-70
2022/12/05 00:28:56;;;;;;;;;;;;;;;0.13;77.17;102038.81;5046253;28;19920;-70
2022/12/05 00:31:22;;;;;;;;;;;;;;;0.18;77.08;102047.63;5046323;28;19909;-68
2022/12/05 00:33:48;;;;;;;;;;;;;;;0.17;77.25;102038.22;5061669;28;19916;-69
2022/12/05 00:36:15;;;;;;;;;;;;;;;0.18;77.22;102032.31;5061457;28;19976;-69
2022/12/05 00:38:41;;;;;;;;;;;;;;;0.23;76.94;102010.50;5061348;28;19932;-70
2022/12/05 00:41:08;;;;;;;;;;;;;;;0.18;76.88;102026.31;5046180;28;19909;-69
2022/12/05 00:43:34;;;;;;;;;;;;;;;0.17;77.02;102015.22;5046146;28;19920;-70
2022/12/05 00:46:19;;;;;;;;;;;;;;;0.15;76.93;102019.34;5046023;28;19972;-70
2022/12/05 00:48:44;;;;;;;;;;;;;;;0.18;76.98;102027.19;5046036;28;19919;-70
2022/12/05 00:51:11;;;;;;;;;;;;;;;0.14;76.90;101999.72;5046120;28;20351;-71
2022/12/05 00:53:36;;;;;;;;;;;;;;;0.14;77.08;102011.59;5045842;28;19913;-70
2022/12/05 00:56:02;;;;;;;;;;;;;;;0.10;77.12;102025.84;5046086;28;19909;-69
2022/12/05 00:58:28;;;;;;;;;;;;;;;0.10;77.09;102013.06;5061056;28;20000;-70
2022/12/05 01:00:53;;;;;;;;;;;;;;;0.11;77.10;102008.06;5045828;28;19912;-69
2022/12/05 01:03:18;;;;;;;;;;;;;;;0.14;77.14;102007.38;5060995;28;19909;-69
2022/12/05 01:05:44;;;;;;;;;;;;;;;0.13;77.12;102020.91;5044895;28;19932;-70
2022/12/05 01:08:09;;;;;;;;;;;;;;;0.18;76.98;102004.22;5044386;28;20346;-69
2022/12/05 01:10:34;;;;;;;;;;;;;;;0.08;76.87;101986.59;5045677;28;19942;-70
2022/12/05 01:12:59;;;;;;;;;;;;;;;0.18;77.01;102004.22;5044417;28;20280;-70
2022/12/05 01:15:25;;;;;;;;;;;;;;;0.22;76.94;102006.16;5045825;28;19968;-70
2022/12/05 01:17:50;;;;;;;;;;;;;;;0.23;76.83;102014.69;5045498;28;19975;-68
2022/12/05 01:20:15;;;;;;;;;;;;;;;0.22;76.92;101997.63;5045682;28;20008;-70
2022/12/05 01:22:40;;;;;;;;;;;;;;;0.24;76.89;101999.47;5045153;28;19924;-69
2022/12/05 01:25:06;;;;;;;;;;;;;;;0.29;76.71;101993.78;5045419;28;19944;-70
2022/12/05 01:27:31;;;;;;;;;;;;;;;0.24;76.87;101999.47;5045355;28;19931;-70
2022/12/05 01:29:56;;;;;;;;;;;;;;;0.23;76.94;101986.59;5060610;28;19955;-71
2022/12/05 01:32:22;;;;;;;;;;;;;;;0.25;77.01;101977.38;5044585;28;19909;-70
2022/12/05 01:34:47;;;;;;;;;;;;;;;0.24;76.98;101998.56;5045573;28;20276;-70
2022/12/05 01:37:12;;;;;;;;;;;;;;;0.27;76.84;101987.69;5045386;28;20825;-70
2022/12/05 01:39:37;;;;;;;;;;;;;;;0.21;76.89;101983.06;5045561;28;19913;-70
2022/12/05 01:42:03;;;;;;;;;;;;;;;0.23;77.04;101992.59;5045265;28;19913;-70
2022/12/05 01:44:28;;;;;;;;;;;;;;;0.27;76.83;101982.56;5045376;28;19909;-70
2022/12/05 01:46:54;;;;;;;;;;;;;;;0.22;76.88;101980.59;5045366;28;19947;-69
2022/12/05 01:49:21;;;;;;;;;;;;;;;0.32;76.78;101978.63;5060498;28;19956;-69
2022/12/05 01:51:51;;;;;;;;;;;;;;;0.22;76.65;101972.94;5060720;28;19916;-68
2022/12/05 01:54:18;;;;;;;;;;;;;;;0.20;76.87;101982.22;5060587;28;19920;-70
2022/12/05 01:56:44;;;;;;;;;;;;;;;0.15;76.85;101978.47;5045295;28;20488;-71
2022/12/05 01:59:10;;;;;;;;;;;;;;;0.20;76.66;101973.66;5045081;28;19916;-70
2022/12/05 02:01:36;;;;;;;;;;;;;;;0.14;76.90;101981.84;5045430;28;19913;-70
2022/12/05 02:04:02;;;;;;;;;;;;;;;0.17;76.81;101976.91;5045221;28;20412;-70
2022/12/05 02:06:27;;;;;;;;;;;;;;;0.15;76.96;101968.28;5045104;28;19909;-68
2022/12/05 02:08:53;;;;;;;;;;;;;;;0.16;76.80;101970.03;5044765;28;19920;-68
2022/12/05 02:11:19;;;;;;;;;;;;;;;0.15;76.80;101968.28;5044999;28;20368;-68
2022/12/05 02:14:02;;;;;;;;;;;;;;;0.16;76.88;101969.16;5045063;28;20316;-68
2022/12/05 02:16:31;;;;;;;;;;;;;;;0.19;76.79;101970.19;5060432;28;19909;-67
2022/12/05 02:19:14;;;;;;;;;;;;;;;0.15;76.91;101972.47;5044930;28;19909;-69
2022/12/05 02:21:42;;;;;;;;;;;;;;;0.14;76.76;101973.28;5044735;28;19963;-68
2022/12/05 02:24:16;;;;;;;;;;;;;;;0.19;76.81;101979.56;5044780;28;19909;-68
2022/12/05 02:27:00;;;;;;;;;;;;;;;0.20;76.79;101966.88;5044995;28;19919;-69
2022/12/05 02:29:37;;;;;;;;;;;;;;;0.20;76.82;101964.31;5044741;28;19917;-68
2022/12/05 02:32:17;;;;;;;;;;;;;;;0.26;76.59;101970.59;5043765;28;19913;-69
2022/12/05 02:34:45;;;;;;;;;;;;;;;0.22;76.68;101965.28;5043868;28;19909;-68
2022/12/05 02:37:17;;;;;;;;;;;;;;;0.21;76.57;101960.06;5043411;28;19909;-69
2022/12/05 02:39:42;;;;;;;;;;;;;;;0.21;76.45;101965.19;5044475;28;19920;-68
2022/12/05 02:42:11;;;;;;;;;;;;;;;0.17;76.59;101959.03;5045514;28;19909;-68
2022/12/05 02:44:46;;;;;;;;;;;;;;;0.19;76.66;101961.69;5063727;28;19939;-68
2022/12/05 02:47:13;;;;;;;;;;;;;;;0.27;76.54;101957.91;5048273;28;19943;-69
2022/12/05 02:49:40;;;;;;;;;;;;;;;0.22;76.33;101960.16;5048341;28;19913;-69
2022/12/05 02:52:07;;;;;;;;;;;;;;;0.15;76.56;101967.38;5048123;28;19931;-69
2022/12/05 02:54:35;;;;;;;;;;;;;;;0.20;76.33;101960.88;5048263;28;19916;-69
2022/12/05 02:57:00;;;;;;;;;;;;;;;0.18;76.62;101958.22;5048228;28;20001;-69
2022/12/05 02:59:26;;;;;;;;;;;;;;;0.17;76.47;101960.69;5048157;28;19909;-69
2022/12/05 03:01:51;;;;;;;;;;;;;;;0.15;76.67;101957.16;5063510;28;19909;-70
2022/12/05 03:04:18;;;;;;;;;;;;;;;0.16;76.66;101941.91;5048212;28;19909;-70
2022/12/05 03:06:46;;;;;;;;;;;;;;;0.18;76.53;101954.78;5048030;28;19913;-70
2022/12/05 03:09:14;;;;;;;;;;;;;;;0.14;76.73;101951.19;5047674;28;20354;-70
2022/12/05 03:11:41;;;;;;;;;;;;;;;0.13;76.72;101934.09;5046694;28;19963;-69
2022/12/05 03:14:10;;;;;;;;;;;;;;;0.14;76.79;101945.19;5063207;28;19909;-69
2022/12/05 03:16:47;;;;;;;;;;;;;;;0.13;76.93;101944.28;5047786;28;19909;-68
2022/12/05 03:19:29;;;;;;;;;;;;;;;0.17;76.76;101932.59;5047715;28;19909;-70
2022/12/05 03:22:00;;;;;;;;;;;;;;;0.15;76.76;101932.50;5047413;28;19921;-70
2022/12/05 03:24:25;;;;;;;;;;;;;;;0.13;76.82;101923.88;5047548;28;19909;-70
2022/12/05 03:26:54;;;;;;;;;;;;;;;0.14;76.91;101922.22;5062429;28;19955;-69
2022/12/05 03:29:23;;;;;;;;;;;;;;;0.14;76.82;101919.66;5046426;28;19940;-69
2022/12/05 03:31:53;;;;;;;;;;;;;;;0.15;76.71;101912.06;5062188;28;19909;-68
2022/12/05 03:34:39;;;;;;;;;;;;;;;0.16;76.52;101913.81;5047626;28;19909;-69
2022/12/05 03:37:07;;;;;;;;;;;;;;;0.18;76.46;101912.25;5035276;28;19923;-70
2022/12/05 03:39:34;;;;;;;;;;;;;;;0.14;76.44;101910.31;5047361;28;19909;-70
2022/12/05 03:42:09;;;;;;;;;;;;;;;0.11;76.59;101920.38;5047426;28;19909;-69
2022/12/05 03:44:46;;;;;;;;;;;;;;;0.07;76.69;101920.94;5047184;28;19966;-69
2022/12/05 03:47:15;;;;;;;;;;;;;;;0.02;76.81;101927.47;5047170;28;19920;-69
2022/12/05 03:49:44;;;;;;;;;;;;;;;0.05;76.79;101915.75;5047125;28;19976;-68
2022/12/05 03:52:16;;;;;;;;;;;;;;;0.06;76.88;101924.31;5047101;28;19913;-69
2022/12/05 03:54:44;;;;;;;;;;;;;;;0.09;76.94;101911.72;5046515;28;19916;-69
2022/12/05 03:57:12;;;;;;;;;;;;;;;0.09;76.95;101919.38;5047159;28;19909;-69
2022/12/05 03:59:45;;;;;;;;;;;;;;;0.07;76.79;101923.50;5062226;28;19932;-69
2022/12/05 04:02:16;;;;;;;;;;;;;;;0.08;76.85;101910.81;5047046;28;19913;-69
2022/12/05 04:04:51;;;;;;;;;;;;;;;0.09;76.54;101907.50;5046942;28;19987;-70
2022/12/05 04:07:17;;;;;;;;;;;;;;;0.05;76.66;101904.69;5062014;28;20010;-69
2022/12/05 04:09:45;;;;;;;;;;;;;;;0.02;76.92;101907.06;5046862;28;20337;-68
2022/12/05 04:12:15;;;;;;;;;;;;;;;0.02;77.03;101915.56;5046934;28;19909;-69
2022/12/05 04:14:43;;;;;;;;;;;;;;;0.07;76.82;101898.84;5046893;28;19951;-69
2022/12/05 04:17:22;;;;;;;;;;;;;;;0.02;76.92;101902.81;5046739;28;19941;-69
2022/12/05 04:22:44;;;;;;;;;;;;;;;0.04;76.93;101892.69;5046665;28;19939;-68
2022/12/05 04:27:55;;;;;;;;;;;;;;;0.01;77.17;101882.28;5046537;28;19916;-70
2022/12/05 04:30:22;;;;;;;;;;;;;;;0.02;77.14;101878.97;5046544;28;19913;-69
2022/12/05 04:32:48;;;;;;;;;;;;;;;0.05;76.92;101874.88;5046450;28;19932;-70
2022/12/05 04:35:25;;;;;;;;;;;;;;;0.01;77.03;101872.97;5046521;28;19916;-70
2022/12/05 04:37:52;;;;;;;;;;;;;;;0.00;77.33;101876.31;5061532;28;19940;-69
2022/12/05 04:40:20;;;;;;;;;;;;;;;0.01;77.17;101879.72;5045028;28;20411;-67
2022/12/05 04:42:48;;;;;;;;;;;;;;;0.04;77.04;101872.25;5046225;28;19909;-69
2022/12/05 04:45:15;;;;;;;;;;;;;;;0.15;76.88;101870.31;5061582;28;19948;-68
2022/12/05 04:47:44;;;;;;;;;;;;;;;0.09;76.86;101870.84;5046091;28;19932;-70
2022/12/05 04:50:11;;;;;;;;;;;;;;;0.08;77.03;101871.66;5046071;28;19936;-68
2022/12/05 04:52:36;;;;;;;;;;;;;;;0.08;76.86;101864.84;5045932;28;19909;-70
2022/12/05 04:55:10;;;;;;;;;;;;;;;-0.01;76.94;101867.78;5061332;28;19909;-69
2022/12/05 04:57:39;;;;;;;;;;;;;;;0.05;76.86;101871.47;5045965;28;20000;-69
2022/12/05 05:00:05;;;;;;;;;;;;;;;0.04;76.84;101862.03;5045830;28;19909;-70
2022/12/05 05:02:39;;;;;;;;;;;;;;;-0.01;77.01;101860.09;5044650;28;19931;-70
2022/12/05 05:05:07;;;;;;;;;;;;;;;0.06;76.69;101866.47;5045620;28;19943;-66
2022/12/05 05:07:41;;;;;;;;;;;;;;;0.01;77.05;101867.84;5060791;28;19909;-67
2022/12/05 05:10:06;;;;;;;;;;;;;;;0.08;76.73;101861.44;5060920;28;20399;-71
2022/12/05 05:12:32;;;;;;;;;;;;;;;-0.03;76.83;101859.13;5045688;28;19909;-72
2022/12/05 05:14:57;;;;;;;;;;;;;;;0.03;76.88;101865.41;5045637;28;19952;-71
2022/12/05 05:17:22;;;;;;;;;;;;;;;0.04;76.75;101862.94;5045615;28;19909;-71
2022/12/05 05:19:47;;;;;;;;;;;;;;;0.04;76.74;101864.59;5060880;28;19916;-73
2022/12/05 05:22:12;;;;;;;;;;;;;;;-0.01;76.75;101870.31;5045226;28;19917;-73
2022/12/05 05:24:38;;;;;;;;;;;;;;;-0.01;76.96;101862.66;5045559;28;19909;-74
2022/12/05 05:27:03;;;;;;;;;;;;;;;-0.02;76.99;101863.44;5045419;28;19920;-72
2022/12/05 05:29:28;;;;;;;;;;;;;;;0.03;77.04;101862.84;5045130;28;19913;-73
2022/12/05 05:31:53;;;;;;;;;;;;;;;0.02;76.97;101863.63;5045478;28;19913;-72
2022/12/05 05:34:18;;;;;;;;;;;;;;;0.04;76.86;101862.94;5044207;28;19940;-73
2022/12/05 05:36:44;;;;;;;;;;;;;;;0.08;76.66;101864.00;5060701;28;19912;-72
2022/12/05 05:39:13;;;;;;;;;;;;;;;0.07;76.66;101852.00;5045217;28;19948;-73
2022/12/05 05:41:39;;;;;;;;;;;;;;;0.04;76.64;101856.94;5060589;28;19916;-67
2022/12/05 05:44:04;;;;;;;;;;;;;;;-0.01;76.63;101855.00;5045491;28;19909;-69
2022/12/05 05:46:31;;;;;;;;;;;;;;;0.03;76.43;101852.63;5045551;28;20016;-68
2022/12/05 05:48:56;;;;;;;;;;;;;;;-0.03;76.39;101846.34;5045397;28;19909;-70
2022/12/05 05:51:24;;;;;;;;;;;;;;;-0.03;76.40;101850.56;5045629;28;20004;-71
2022/12/05 05:53:49;;;;;;;;;;;;;;;-0.03;76.62;101843.81;5060505;28;19913;-71
2022/12/05 05:56:15;;;;;;;;;;;;;;;-0.01;76.47;101852.44;5045057;28;19909;-69
2022/12/05 05:58:41;;;;;;;;;;;;;;;0.04;76.33;101849.25;5045114;28;19916;-70
2022/12/05 06:01:08;;;;;;;;;;;;;;;0.05;76.27;101849.34;5045361;28;19909;-70
2022/12/05 06:03:33;;;;;;;;;;;;;;;0.04;76.10;101842.50;5043982;28;19940;-69
2022/12/05 06:06:00;;;;;;;;;;;;;;;0.04;76.18;101856.94;5045124;28;19909;-70
2022/12/05 06:08:27;;;;;;;;;;;;;;;0.03;76.04;101850.06;5044941;28;19913;-72
2022/12/05 06:10:52;;;;;;;;;;;;;;;0.01;76.26;101842.31;5045010;28;19913;-71
2022/12/05 06:13:18;;;;;;;;;;;;;;;0.12;75.66;101840.38;5045233;28;19916;-71
2022/12/05 06:15:43;;;;;;;;;;;;;;;0.01;75.86;101841.44;5060450;28;19923;-71
2022/12/05 06:18:08;;;;;;;;;;;;;;;0.01;75.84;101826.09;5047038;28;19915;-70
2022/12/05 06:20:33;;;;;;;;;;;;;;;-0.04;75.86;101841.16;5048774;28;19971;-71
2022/12/05 06:22:59;;;;;;;;;;;;;;;-0.06;75.91;101830.84;5048570;28;19920;-72
2022/12/05 06:25:24;;;;;;;;;;;;;;;-0.02;75.92;101829.38;5048938;28;19909;-71
2022/12/05 06:27:49;;;;;;;;;;;;;;;-0.03;76.02;101832.69;5049046;28;19932;-70
2022/12/05 06:30:14;;;;;;;;;;;;;;;0.02;75.71;101833.00;5048685;28;20424;-71
2022/12/05 06:32:40;;;;;;;;;;;;;;;0.03;75.55;101839.84;5048759;28;19909;-71
2022/12/05 06:35:14;;;;;;;;;;;;;;;-0.01;75.67;101833.69;5048404;28;19909;-71
2022/12/05 06:37:39;;;;;;;;;;;;;;;0.04;75.48;101826.28;5048500;28;19909;-70
2022/12/05 06:40:05;;;;;;;;;;;;;;;-0.06;75.58;101835.06;5048465;28;19915;-72
2022/12/05 06:42:30;;;;;;;;;;;;;;;0.04;75.38;101836.50;5063950;28;20004;-71
2022/12/05 06:44:55;;;;;;;;;;;;;;;-0.02;75.57;101837.91;5048526;28;19909;-71
2022/12/05 06:47:20;;;;;;;;;;;;;;;-0.01;75.62;101826.91;5048684;28;19916;-72
2022/12/05 06:49:46;;;;;;;;;;;;;;;0.02;75.37;101833.00;5048486;28;19983;-70
2022/12/05 06:52:11;;;;;;;;;;;;;;;0.02;75.29;101838.09;5048514;28;19920;-71
2022/12/05 06:54:36;;;;;;;;;;;;;;;0.00;75.36;101835.47;5048386;28;19909;-71
2022/12/05 06:57:02;;;;;;;;;;;;;;;-0.02;75.39;101837.91;5048591;28;19909;-72
2022/12/05 06:59:27;;;;;;;;;;;;;;;-0.03;75.53;101836.16;5046988;28;19940;-71
2022/12/05 07:01:52;;;;;;;;;;;;;;;0.03;75.33;101832.19;5048318;28;19909;-72
2022/12/05 07:04:20;;;;;;;;;;;;;;;0.04;75.31;101836.50;5048269;28;19909;-70
2022/12/05 07:06:48;;;;;;;;;;;;;;;0.02;75.27;101836.41;5063705;28;19920;-71
2022/12/05 07:09:13;;;;;;;;;;;;;;;0.04;75.29;101834.84;5047934;28;20024;-73
2022/12/05 07:11:38;;;;;;;;;;;;;;;0.07;75.39;101857.09;5048386;28;19913;-71
2022/12/05 07:14:04;;;;;;;;;;;;;;;0.09;75.17;101842.75;5063380;28;19913;-71
2022/12/05 07:16:29;;;;;;;;;;;;;;;0.06;74.85;101838.38;5048218;28;19982;-71
2022/12/05 07:18:55;;;;;;;;;;;;;;;0.08;74.92;101830.81;5048010;28;20364;-70
2022/12/05 07:21:21;;;;;;;;;;;;;;;0.02;75.13;101833.00;5047783;28;20316;-71
2022/12/05 07:23:48;;;;;;;;;;;;;;;0.01;75.01;101833.78;5047904;28;19916;-71
2022/12/05 07:26:15;;;;;;;;;;;;;;;0.01;75.11;101846.53;5046593;28;20325;-72
2022/12/05 07:28:40;;;;;;;;;;;;;;;0.03;75.24;101850.06;5045671;28;19959;-70
2022/12/05 07:31:07;;;;;;;;;;;;;;;-0.01;75.16;101842.22;5046329;28;19932;-71
2022/12/05 07:33:32;;;;;;;;;;;;;;;-0.04;75.19;101834.41;5063162;28;19909;-71
2022/12/05 07:35:59;;;;;;;;;;;;;;;0.01;75.10;101841.44;5048005;28;19909;-71
2022/12/05 07:38:24;;;;;;;;;;;;;;;-0.01;75.20;101839.69;5047452;28;19913;-71
2022/12/05 07:40:49;;;;;;;;;;;;;;;-0.02;75.13;101844.69;5047796;28;19909;-71
2022/12/05 07:43:15;;;;;;;;;;;;;;;0.02;75.02;101833.00;5047697;28;19915;-72
2022/12/05 07:45:40;;;;;;;;;;;;;;;-0.06;75.45;101835.06;5047690;28;19909;-70
2022/12/05 07:48:05;;;;;;;;;;;;;;;-0.06;75.27;101835.97;5047389;28;19916;-70
2022/12/05 07:50:30;;;;;;;;;;;;;;;0.02;75.01;101840.66;5047293;28;19917;-71
2022/12/05 07:52:56;;;;;;;;;;;;;;;-0.05;75.38;101832.63;5062641;28;19909;-70
2022/12/05 07:55:21;;;;;;;;;;;;;;;0.02;75.22;101840.66;5047128;28;19920;-70
2022/12/05 07:57:46;;;;;;;;;;;;;;;0.06;75.23;101834.94;5047292;28;19981;-71
2022/12/05 08:00:12;;;;;;;;;;;;;;;0.09;75.31;101845.31;5062445;28;19979;-70
2022/12/05 08:02:37;;;;;;;;;;;;;;;0.07;75.29;101836.69;5047132;28;19909;-71
2022/12/05 08:05:02;;;;;;;;;;;;;;;0.08;75.26;101830.81;5047126;28;20415;-71
2022/12/05 08:07:27;;;;;;;;;;;;;;;0.09;75.47;101824.88;5046479;28;19916;-70
2022/12/05 08:09:52;;;;;;;;;;;;;;;0.13;75.41;101828.50;5046753;28;19996;-71
2022/12/05 08:12:18;;;;;;;;;;;;;;;0.16;75.33;101824.44;5046516;28;19909;-70
2022/12/05 08:14:43;;;;;;;;;;;;;;;0.21;75.22;101820.47;5046682;28;19959;-71
2022/12/05 08:17:08;;;;;;;;;;;;;;;0.20;75.24;101825.50;5046456;28;19909;-71
2022/12/05 08:19:34;;;;;;;;;;;;;;;0.24;75.11;101835.97;5046289;28;19913;-71
2022/12/05 08:21:59;;;;;;;;;;;;;;;0.22;74.97;101822.22;5045000;28;19939;-71
2022/12/05 08:24:24;;;;;;;;;;;;;;;0.23;74.94;101818.91;5046285;28;19940;-71
2022/12/05 08:26:50;;;;;;;;;;;;;;;0.19;75.01;101813.53;5045355;28;19931;-71
2022/12/05 08:29:20;;;;;;;;;;;;;;;0.19;75.15;101811.84;5046277;28;20277;-70
2022/12/05 08:31:46;;;;;;;;;;;;;;;0.09;75.01;101799.34;5061952;28;19909;-71
2022/12/05 08:34:12;;;;;;;;;;;;;;;0.22;75.06;101811.16;5046520;28;19940;-70
2022/12/05 08:36:37;;;;;;;;;;;;;;;0.19;75.16;101805.88;5046425;28;19909;-70
2022/12/05 08:39:03;;;;;;;;;;;;;;;0.24;75.21;101812.97;5045906;28;19973;-70
2022/12/05 08:41:29;;;;;;;;;;;;;;;0.26;75.11;101804.56;5045785;28;19915;-71
2022/12/05 08:43:54;;;;;;;;;;;;;;;0.21;75.15;101807.69;5045042;28;19952;-71
2022/12/05 08:46:20;;;;;;;;;;;;;;;0.23;75.23;101807.78;5046391;28;19909;-72
2022/12/05 08:48:45;;;;;;;;;;;;;;;0.24;75.07;101799.31;5046078;28;19920;-71
2022/12/05 08:51:11;;;;;;;;;;;;;;;0.23;75.10;101801.03;5046154;28;19928;-70
2022/12/05 08:53:37;;;;;;;;;;;;;;;0.24;75.16;101804.44;5046053;28;19909;-71
2022/12/05 08:56:03;;;;;;;;;;;;;;;0.23;75.21;101798.47;5045710;28;20397;-70
2022/12/05 08:58:29;;;;;;;;;;;;;;;0.28;75.06;101796.16;5044667;28;19920;-70
2022/12/05 09:01:01;;;;;;;;;;;;;;;0.24;75.19;101794.22;5045339;28;19920;-71
2022/12/05 09:03:26;;;;;;;;;;;;;;;0.26;75.09;101802.84;5046014;28;19909;-71
2022/12/05 09:05:52;;;;;;;;;;;;;;;0.25;75.07;101796.00;5046066;28;19908;-72
2022/12/05 09:08:17;;;;;;;;;;;;;;;0.29;75.24;101802.16;5045680;28;19989;-71
2022/12/05 09:10:42;;;;;;;;;;;;;;;0.31;75.29;101795.44;5045892;28;19914;-69
2022/12/05 09:13:07;;;;;;;;;;;;;;;0.32;75.22;101807.44;5045793;28;19916;-69
2022/12/05 09:15:32;;;;;;;;;;;;;;;0.39;75.05;101800.97;5061104;28;19915;-70
2022/12/05 09:17:58;;;;;;;;;;;;;;;0.33;75.04;101804.97;5045783;28;19964;-70
2022/12/05 09:20:23;;;;;;;;;;;;;;;0.35;75.21;101807.63;5044063;28;19921;-70
2022/12/05 09:22:48;;;;;;;;;;;;;;;0.39;75.10;101812.09;5045408;28;19909;-70
2022/12/05 09:25:13;;;;;;;;;;;;;;;0.42;74.95;101790.94;5045593;28;19909;-70
2022/12/05 09:27:39;;;;;;;;;;;;;;;0.37;75.11;101785.56;5060184;28;19939;-70
2022/12/05 09:30:04;;;;;;;;;;;;;;;0.39;75.20;101794.22;5045331;28;19939;-70
2022/12/05 09:32:30;;;;;;;;;;;;;;;0.40;74.97;101790.00;5045316;28;20007;-70
2022/12/05 09:34:55;;;;;;;;;;;;;;;0.43;75.20;101790.16;5045510;28;20309;-71
2022/12/05 09:37:20;;;;;;;;;;;;;;;0.46;75.00;101786.06;5045508;28;20286;-71
2022/12/05 09:39:45;;;;;;;;;;;;;;;0.48;75.08;101792.16;5045061;28;20387;-71
2022/12/05 09:42:31;;;;;;;;;;;;;;;0.47;75.07;101789.53;5045886;28;20375;-71
2022/12/05 09:45:03;;;;;;;;;;;;;;;0.46;75.11;101775.00;5045706;28;19909;-70
2022/12/05 09:47:28;;;;;;;;;;;;;;;0.51;74.77;101780.34;5060867;28;19916;-70
2022/12/05 09:49:53;;;;;;;;;;;;;;;0.50;74.82;101766.69;5045348;28;19916;-70
2022/12/05 09:52:30;;;;;;;;;;;;;;;0.48;74.86;101776.81;5046249;28;19989;-70
2022/12/05 09:54:57;;;;;;;;;;;;;;;0.49;74.65;101776.06;5049544;28;19915;-70
2022/12/05 09:57:44;;;;;;;;;;;;;;;0.51;74.48;101765.91;5049563;28;19976;-70
2022/12/05 10:00:10;;;;;;;;;;;;;;;0.46;74.75;101765.63;5049451;28;19909;-70
2022/12/05 10:02:49;;;;;;;;;;;;;;;0.47;74.68;101761.41;5048078;28;19909;-70
2022/12/05 10:05:38;;;;;;;;;;;;;;;0.49;74.53;101770.06;5049666;28;19949;-71
2022/12/05 10:08:06;;;;;;;;;;;;;;;0.47;74.75;101759.75;5046221;28;19999;-71
2022/12/05 10:10:37;;;;;;;;;;;;;;;0.44;74.82;101764.69;5064606;28;19913;-69
2022/12/05 10:13:09;;;;;;;;;;;;;;;0.45;74.73;101761.34;5049116;28;19947;-71
2022/12/05 10:15:37;;;;;;;;;;;;;;;0.45;74.83;101758.78;5048964;28;19920;-71
2022/12/05 10:18:12;;;;;;;;;;;;;;;0.48;74.78;101748.72;5048861;28;19909;-71
2022/12/05 10:20:42;;;;;;;;;;;;;;;0.49;74.85;101740.28;5047313;28;20373;-70
2022/12/05 10:23:16;;;;;;;;;;;;;;;0.56;74.89;101740.59;5063534;28;19909;-70
2022/12/05 10:25:42;;;;;;;;;;;;;;;0.61;74.65;101747.72;5064179;28;19909;-72
2022/12/05 10:28:14;;;;;;;;;;;;;;;0.63;74.67;101740.13;5048938;28;19916;-72
2022/12/05 10:30:41;;;;;;;;;;;;;;;0.63;74.45;101741.81;5048703;28;19913;-72
2022/12/05 10:33:13;;;;;;;;;;;;;;;0.64;74.58;101738.47;5048573;28;20324;-72
2022/12/05 10:35:39;;;;;;;;;;;;;;;0.64;74.53;101736.78;5048815;28;19935;-71
2022/12/05 10:38:23;;;;;;;;;;;;;;;0.64;74.53;101731.66;5048468;28;19909;-72
2022/12/05 10:40:50;;;;;;;;;;;;;;;0.66;74.73;101730.06;5063709;28;19909;-71
2022/12/05 10:43:19;;;;;;;;;;;;;;;0.72;74.51;101729.50;5048344;28;19916;-71
2022/12/05 10:45:46;;;;;;;;;;;;;;;0.71;74.04;101726.09;5048340;28;20297;-71
2022/12/05 10:48:12;;;;;;;;;;;;;;;0.66;74.24;101729.19;5048216;28;19909;-71
2022/12/05 10:50:38;;;;;;;;;;;;;;;0.63;74.27;101714.56;5047937;28;20028;-71
2022/12/05 10:53:04;;;;;;;;;;;;;;;0.59;74.42;101710.09;5048147;28;19912;-71
2022/12/05 10:55:38;;;;;;;;;;;;;;;0.59;74.58;101717.78;5048506;28;19909;-71
2022/12/05 10:58:11;;;;;;;;;;;;;;;0.61;74.57;101699.16;5048462;28;19909;-71
2022/12/05 11:00:43;;;;;;;;;;;;;;;0.70;74.78;101695.34;5048218;28;20436;-71
2022/12/05 11:03:20;;;;;;;;;;;;;;;0.75;74.78;101693.91;5063453;28;19909;-71
2022/12/05 11:05:48;;;;;;;;;;;;;;;0.83;74.60;101690.06;5048226;28;19909;-71
2022/12/05 11:08:20;;;;;;;;;;;;;;;0.82;74.33;101684.88;5047976;28;19920;-70
2022/12/05 11:10:46;;;;;;;;;;;;;;;0.81;74.29;101685.66;5048122;28;19913;-70
2022/12/05 11:13:15;;;;;;;;;;;;;;;0.81;74.21;101685.66;5048099;28;19959;-69
2022/12/05 11:15:45;;;;;;;;;;;;;;;0.81;73.93;101672.88;5063328;28;19984;-71
2022/12/05 11:18:18;;;;;;;;;;;;;;;0.81;73.84;101675.44;5063319;28;19909;-71
2022/12/05 11:20:43;;;;;;;;;;;;;;;0.80;74.05;101669.44;5061779;28;19917;-69
2022/12/05 11:23:16;;;;;;;;;;;;;;;0.81;74.17;101672.88;5047509;28;19913;-71
2022/12/05 11:25:41;;;;;;;;;;;;;;;0.81;74.27;101663.56;5047796;28;19948;-71
2022/12/05 11:28:16;;;;;;;;;;;;;;;0.82;74.18;101667.84;5045351;28;19932;-71
2022/12/05 11:30:54;;;;;;;;;;;;;;;0.86;73.96;101666.34;5061497;28;19913;-70
2022/12/05 11:33:22;;;;;;;;;;;;;;;0.84;73.97;101666.28;5047837;28;19909;-70
2022/12/05 11:35:48;;;;;;;;;;;;;;;0.87;73.68;101657.88;5047478;28;19916;-70
2022/12/05 11:38:15;;;;;;;;;;;;;;;0.84;73.94;101656.03;5047319;28;19909;-71
2022/12/05 11:40:50;;;;;;;;;;;;;;;0.84;74.06;101655.16;5062736;28;19909;-71
2022/12/05 11:43:15;;;;;;;;;;;;;;;0.90;74.02;101654.56;5047536;28;19909;-70
2022/12/05 11:45:50;;;;;;;;;;;;;;;0.90;74.17;101654.56;5047725;28;19944;-71
2022/12/05 11:48:15;;;;;;;;;;;;;;;0.88;73.87;101667.28;5047626;28;19913;-72
2022/12/05 11:50:59;;;;;;;;;;;;;;;0.83;73.84;101650.84;5062769;28;19967;-70
2022/12/05 11:53:25;;;;;;;;;;;;;;;0.86;73.79;101636.53;5047354;28;19917;-71
2022/12/05 11:56:02;;;;;;;;;;;;;;;0.84;73.89;101643.25;5047576;28;19915;-70
2022/12/05 11:58:46;;;;;;;;;;;;;;;0.86;73.90;101644.19;5047363;28;19909;-71
2022/12/05 12:01:12;;;;;;;;;;;;;;;0.87;73.94;101639.97;5047515;28;19936;-72
2022/12/05 12:03:51;;;;;;;;;;;;;;;0.90;74.06;101639.22;5047302;28;19948;-71
2022/12/05 12:06:37;;;;;;;;;;;;;;;0.88;73.88;101633.19;5047274;28;19909;-70
2022/12/05 12:09:29;;;;;;;;;;;;;;;0.86;73.84;101628.00;5045402;28;19909;-71
2022/12/05 12:11:57;;;;;;;;;;;;;;;0.87;74.02;101627.19;5044474;28;19912;-72
2022/12/05 12:14:41;;;;;;;;;;;;;;;0.88;73.89;101631.47;5047033;28;19980;-71
2022/12/05 12:17:06;;;;;;;;;;;;;;;0.91;74.05;101626.53;5046688;28;19909;-72
2022/12/05 12:19:46;;;;;;;;;;;;;;;0.89;74.03;101624.69;5046796;28;19909;-71
2022/12/05 12:22:30;;;;;;;;;;;;;;;0.90;73.97;101614.56;5046833;28;19917;-71
2022/12/05 12:24:55;;;;;;;;;;;;;;;0.88;73.96;101611.03;5046745;28;20004;-70
2022/12/05 12:27:21;;;;;;;;;;;;;;;0.86;73.97;101610.09;5047058;28;19909;-71
2022/12/05 12:29:58;;;;;;;;;;;;;;;0.89;74.15;101610.25;5046904;28;19917;-70
2022/12/05 12:32:49;;;;;;;;;;;;;;;0.95;73.99;101602.00;5062299;28;19915;-69
2022/12/05 12:35:14;;;;;;;;;;;;;;;1.03;73.48;101607.50;5046980;28;20337;-71
2022/12/05 12:37:59;;;;;;;;;;;;;;;1.01;73.70;101604.00;5062081;28;19916;-71
2022/12/05 12:40:39;;;;;;;;;;;;;;;0.96;73.69;101593.50;5062076;28;20166;-70
2022/12/05 12:43:17;;;;;;;;;;;;;;;0.99;73.63;101593.69;5046606;28;19912;-71
2022/12/05 12:46:02;;;;;;;;;;;;;;;0.99;73.29;101579.22;5062023;28;19916;-70
2022/12/05 12:48:34;;;;;;;;;;;;;;;0.96;73.24;101599.50;5046690;28;19931;-70
2022/12/05 12:51:01;;;;;;;;;;;;;;;0.89;73.29;101586.34;5061776;28;19913;-71
2022/12/05 12:53:38;;;;;;;;;;;;;;;0.92;73.30;101587.38;5046345;28;19966;-71
2022/12/05 12:56:07;;;;;;;;;;;;;;;0.88;73.30;101584.59;5046369;28;19952;-71
2022/12/05 12:58:39;;;;;;;;;;;;;;;0.82;73.44;101585.16;5061587;28;20155;-71